Hlavní strana
METAR-TAF:

METAR-TAF

Letiště :

Abidžan, Pobřeží slonoviny

zeměpisná šířka: 05-15N, zeměpisná délka: 003-56W, výška: 7 m

Aktuální stav počasí

Zpráva byla vytvořena před 37 minutami, v 00:30 UTC
Východní vítr 3 kt
Teplota 26°C
Vlhkost vzduchu 94%
Tlak 1011 hPa
Viditelnost 10 km a více
Skoro jasno ve výšce 1200 ft

METAR: DIAP 080030Z 09003KT 9999 FEW012 26/25 Q1011 NOSIG

Čas: 01:07 (01:07 UTC)

Předpověď počasí

Zpráva byla vytvořena před 2 hodinami a 7 minutami, v 23:00 UTC
Předpověď platná od 08 v 00 UTC do 09 v 06 UTC
Jihojihozápadní vítr 5 kt
Viditelnost 10 km a více
Polojasno ve výšce 1200 ft
Pravděpodobnost 30% :
Dočasný
od 08 v 06 UTC do 08 v 10 UTC
Viditelnost: 4000 m
Oblačno až skoro zataženo ve výšce 1000 ft
déšť
Dočasný
od 08 v 15 UTC do 08 v 21 UTC
Oblačno až skoro zataženo ve výšce 1200 ft
Skoro jasno ve výšce 2000 ft, Cumulonimbus.
bouřka

TAF: DIAP 072300Z 0800/0906 20005KT 9999 SCT012 PROB30 TEMPO 0806/0810 4000 RA BKN010 TEMPO 0815/0821 TS BKN012 FEW020CB

Stav a předpovědi počasí z více než 4 000 letišť (zprávy METAR a TAF).

Červené a žluté tečky na mapě představují dostupné meteorologické stanice.

Když kurzor umístíte na tečku, zobrazí se název stanice.

Pak kliknutím zobrazíte stav a předpověď počasí.

Chcete-li změnit mapu, kliknutím na zelené tlačítko se znaménkem +mapu přiblížíte, kliknutím na zelené tlačítko se znaménkem – mapu oddálíte a kliknutím na zelené šipky přejdete na sousední mapy.


METAR-TAF: